createdAt,value
2024-02-10T00:01:25.662Z,2.28
2024-02-10T00:06:32.086Z,3.10
2024-02-10T00:11:37.717Z,3.05
2024-02-10T00:16:42.161Z,4.00
2024-02-10T00:21:46.792Z,3.92
2024-02-10T00:26:49.673Z,5.22
2024-02-10T00:31:54.235Z,5.13
2024-02-10T00:36:57.629Z,5.10
2024-02-10T00:42:00.980Z,4.05
2024-02-10T00:47:10.917Z,4.10
2024-02-10T00:52:18.423Z,4.65
2024-02-10T00:57:21.372Z,3.63
2024-02-10T01:02:25.689Z,4.05
2024-02-10T01:07:31.301Z,3.65
2024-02-10T01:12:34.744Z,3.75
2024-02-10T01:17:39.026Z,3.83
2024-02-10T01:22:42.843Z,3.40
2024-02-10T01:27:47.292Z,3.75
2024-02-10T01:32:52.281Z,3.90
2024-02-10T01:37:57.123Z,3.20
2024-02-10T01:43:00.761Z,3.03
2024-02-10T01:48:09.909Z,2.97
2024-02-10T01:53:13.183Z,2.33
2024-02-10T01:58:16.829Z,1.77
2024-02-10T02:03:21.187Z,0.93
2024-02-10T02:08:25.758Z,0.93
2024-02-10T02:13:31.272Z,1.02
2024-02-10T02:18:36.932Z,0.80
2024-02-10T02:23:42.409Z,0.90
2024-02-10T02:28:46.753Z,1.00
2024-02-10T02:33:50.912Z,0.82
2024-02-10T02:38:55.627Z,0.80
2024-02-10T02:43:58.678Z,1.00
2024-02-10T02:49:01.864Z,1.00
2024-02-10T02:54:07.038Z,1.05
2024-02-10T02:59:09.954Z,1.17
2024-02-10T03:04:17.100Z,0.98
2024-02-10T03:09:21.376Z,1.00
2024-02-10T03:14:24.673Z,1.67
2024-02-10T03:19:28.133Z,0.80
2024-02-10T03:24:33.953Z,1.20
2024-02-10T03:29:37.740Z,1.20
2024-02-10T03:34:41.076Z,1.70
2024-02-10T03:39:45.365Z,1.05
2024-02-10T03:44:48.701Z,1.65
2024-02-10T03:49:51.872Z,1.60
2024-02-10T03:54:56.141Z,1.33
2024-02-10T04:00:00.264Z,1.60
2024-02-10T04:05:04.791Z,1.50
2024-02-10T04:10:13.701Z,1.70
2024-02-10T04:15:16.937Z,2.00
2024-02-10T04:20:21.200Z,1.63
2024-02-10T04:25:26.444Z,1.98
2024-02-10T04:30:29.371Z,1.80
2024-02-10T04:35:32.961Z,2.30
2024-02-10T04:40:37.386Z,1.48
2024-02-10T04:45:41.646Z,2.10
2024-02-10T04:50:44.477Z,1.92
2024-02-10T04:55:48.728Z,2.05
2024-02-10T05:00:52.037Z,1.75
2024-02-10T05:05:54.927Z,2.55
2024-02-10T05:10:59.426Z,2.10
2024-02-10T05:16:02.332Z,3.38
2024-02-10T05:21:06.801Z,4.00
2024-02-10T05:26:10.987Z,3.72
2024-02-10T05:31:13.862Z,3.60
2024-02-10T05:36:16.805Z,4.00
2024-02-10T05:41:20.970Z,3.22
2024-02-10T05:46:24.416Z,4.82
2024-02-10T05:51:28.043Z,5.55
2024-02-10T05:56:32.404Z,3.83
2024-02-10T06:01:37.119Z,4.28
2024-02-10T06:06:42.678Z,3.72
2024-02-10T06:11:47.046Z,4.25
2024-02-10T06:16:51.174Z,3.88
2024-02-10T06:21:54.759Z,15.02
2024-02-10T06:26:58.957Z,12.30
2024-02-10T06:32:02.580Z,13.30
2024-02-10T06:37:06.585Z,24.67
2024-02-10T06:42:11.228Z,16.27
2024-02-10T06:47:16.711Z,13.82
2024-02-10T06:52:21.220Z,10.88
2024-02-10T06:57:25.423Z,6.30
2024-02-10T07:02:28.945Z,8.15
2024-02-10T07:07:33.794Z,4.57
2024-02-10T07:12:38.057Z,4.32
2024-02-10T07:17:44.454Z,5.60
2024-02-10T07:22:50.620Z,5.38
2024-02-10T07:28:02.015Z,6.15
2024-02-10T07:33:11.539Z,7.30
2024-02-10T07:38:15.505Z,8.35
2024-02-10T07:43:20.001Z,6.43
2024-02-10T07:48:23.639Z,5.88
2024-02-10T07:53:27.065Z,10.00
2024-02-10T07:58:31.358Z,7.35
2024-02-10T08:03:34.318Z,5.97
2024-02-10T08:08:37.610Z,5.60
2024-02-10T08:13:42.716Z,5.80
2024-02-10T08:18:45.756Z,6.35
2024-02-10T08:23:53.346Z,6.63
2024-02-10T08:28:58.507Z,6.22
2024-02-10T08:34:01.656Z,5.95
2024-02-10T08:39:05.487Z,5.25
2024-02-10T08:44:10.097Z,5.10
2024-02-10T08:49:15.913Z,5.07
2024-02-10T08:54:18.894Z,4.85
2024-02-10T08:59:23.681Z,4.75
2024-02-10T09:04:26.577Z,4.55
2024-02-10T09:09:30.074Z,4.10
2024-02-10T09:14:36.631Z,4.25
2024-02-10T09:19:39.694Z,3.78
2024-02-10T09:24:42.603Z,4.20
2024-02-10T09:29:47.712Z,3.40
2024-02-10T09:34:53.365Z,4.15
2024-02-10T09:39:57.197Z,4.07
2024-02-10T09:45:01.626Z,3.88
2024-02-10T09:50:06.295Z,5.22
2024-02-10T09:55:09.805Z,4.95
2024-02-10T10:00:16.919Z,4.20
2024-02-10T10:05:21.121Z,4.55
2024-02-10T10:10:28.386Z,4.97
2024-02-10T10:15:36.260Z,4.55
2024-02-10T10:20:39.256Z,3.92
2024-02-10T10:25:45.311Z,4.55
2024-02-10T10:30:50.053Z,4.87
2024-02-10T10:35:56.082Z,4.15
2024-02-10T10:41:00.831Z,5.55
2024-02-10T10:46:07.869Z,4.20
2024-02-10T10:51:13.196Z,5.13
2024-02-10T10:56:23.623Z,4.40
2024-02-10T11:01:29.933Z,5.32
2024-02-10T11:06:34.413Z,4.93
2024-02-10T11:11:40.216Z,5.57
2024-02-10T11:16:44.715Z,5.38
2024-02-10T11:21:48.527Z,4.57
2024-02-10T11:26:51.875Z,5.30
2024-02-10T11:32:02.860Z,4.40
2024-02-10T11:37:05.986Z,5.03
2024-02-10T11:42:09.827Z,4.65
2024-02-10T11:47:14.357Z,4.18
2024-02-10T11:52:17.371Z,4.60
2024-02-10T11:57:23.706Z,5.00
2024-02-10T12:02:28.405Z,4.27
2024-02-10T12:07:32.862Z,3.25
2024-02-10T12:12:36.784Z,3.40
2024-02-10T12:17:41.174Z,3.97
2024-02-10T12:22:44.746Z,4.25
2024-02-10T12:27:48.186Z,4.57
2024-02-10T12:32:53.175Z,5.28
2024-02-10T12:37:56.107Z,5.75
2024-02-10T12:43:00.357Z,4.70
2024-02-10T12:48:07.032Z,4.78
2024-02-10T12:53:10.269Z,4.03
2024-02-10T12:58:13.699Z,4.40
2024-02-10T13:03:21.069Z,7.20
2024-02-10T13:08:24.397Z,5.47
2024-02-10T13:13:27.301Z,5.72
2024-02-10T13:18:35.864Z,3.38
2024-02-10T13:23:44.561Z,3.70
2024-02-10T13:28:49.451Z,3.88
2024-02-10T13:33:55.278Z,4.47
2024-02-10T13:39:16.039Z,3.38
2024-02-10T13:44:36.509Z,3.65
2024-02-10T13:50:02.971Z,3.40
2024-02-10T13:55:23.486Z,2.88
2024-02-10T14:00:31.055Z,2.95
2024-02-10T14:05:56.211Z,2.85
2024-02-10T14:11:01.506Z,2.13
2024-02-10T14:16:07.755Z,2.53
2024-02-10T14:21:19.319Z,3.20
2024-02-10T14:26:38.189Z,6.18
2024-02-10T14:31:49.491Z,12.80
2024-02-10T14:36:56.991Z,8.95
2024-02-10T14:42:00.754Z,6.13
2024-02-10T14:47:03.799Z,3.67
2024-02-10T14:52:08.849Z,2.70
2024-02-10T14:57:16.341Z,2.28
2024-02-10T15:02:23.956Z,2.40
2024-02-10T15:07:28.471Z,2.58
2024-02-10T15:12:31.945Z,2.78
2024-02-10T15:17:34.860Z,2.70
2024-02-10T15:22:42.222Z,2.45
2024-02-10T15:27:45.912Z,1.83
2024-02-10T15:32:49.031Z,4.07
2024-02-10T15:37:53.299Z,5.80
2024-02-10T15:42:57.843Z,5.82
2024-02-10T15:48:00.872Z,7.40
2024-02-10T15:53:05.569Z,9.63
2024-02-10T15:58:17.027Z,12.80
2024-02-10T16:03:22.831Z,11.88
2024-02-10T16:08:27.394Z,12.85
2024-02-10T16:13:32.811Z,7.82
2024-02-10T16:18:38.130Z,7.65
2024-02-10T16:23:43.448Z,7.65
2024-02-10T16:28:48.558Z,6.35
2024-02-10T16:33:53.769Z,5.13
2024-02-10T16:39:01.098Z,5.60
2024-02-10T16:44:05.198Z,5.70
2024-02-10T16:49:10.010Z,9.55
2024-02-10T16:54:14.314Z,5.13
2024-02-10T16:59:17.517Z,4.40
2024-02-10T17:04:23.204Z,3.15
2024-02-10T17:09:28.242Z,7.80
2024-02-10T17:14:31.839Z,7.60
2024-02-10T17:19:35.295Z,6.07
2024-02-10T17:24:39.846Z,4.38
2024-02-10T17:29:43.952Z,4.45
2024-02-10T17:34:46.851Z,5.70
2024-02-10T17:39:54.544Z,6.03
2024-02-10T17:44:58.812Z,6.57
2024-02-10T17:50:06.442Z,2.53
2024-02-10T17:55:10.741Z,7.43
2024-02-10T18:00:17.103Z,5.93
2024-02-10T18:05:26.437Z,10.00
2024-02-10T18:10:31.077Z,7.20
2024-02-10T18:15:34.208Z,6.20
2024-02-10T18:20:38.799Z,5.40
2024-02-10T18:25:44.743Z,3.85
2024-02-10T18:30:49.668Z,7.50
2024-02-10T18:35:53.451Z,5.30
2024-02-10T18:40:57.735Z,5.18
2024-02-10T18:46:01.086Z,5.15
2024-02-10T18:51:04.223Z,5.03
2024-02-10T18:56:09.403Z,4.97
2024-02-10T19:01:13.021Z,3.90
2024-02-10T19:06:17.521Z,2.65
2024-02-10T19:11:21.931Z,2.55
2024-02-10T19:16:29.057Z,2.85
2024-02-10T19:21:32.086Z,6.60
2024-02-10T19:26:37.395Z,8.65
2024-02-10T19:31:41.936Z,9.05
2024-02-10T19:36:45.102Z,7.57
2024-02-10T19:41:50.758Z,9.65
2024-02-10T19:46:53.791Z,5.97
2024-02-10T19:51:59.407Z,6.57
2024-02-10T19:57:03.704Z,8.02
2024-02-10T20:02:09.004Z,4.95
2024-02-10T20:07:12.093Z,5.10
2024-02-10T20:12:17.722Z,7.93
2024-02-10T20:17:21.783Z,6.25
2024-02-10T20:22:25.358Z,3.90
2024-02-10T20:27:29.650Z,3.88
2024-02-10T20:32:33.963Z,3.40
2024-02-10T20:37:37.602Z,3.13
2024-02-10T20:42:42.409Z,6.10
2024-02-10T20:47:48.635Z,14.88
2024-02-10T20:52:52.608Z,6.83
2024-02-10T20:57:59.078Z,5.45
2024-02-10T21:03:05.027Z,12.10
2024-02-10T21:08:09.138Z,7.82
2024-02-10T21:13:14.221Z,7.78
2024-02-10T21:18:17.278Z,6.10
2024-02-10T21:23:20.906Z,9.75
2024-02-10T21:28:26.881Z,8.82
2024-02-10T21:33:33.046Z,10.50
2024-02-10T21:38:40.186Z,6.05
2024-02-10T21:43:44.656Z,6.35
2024-02-10T21:48:47.679Z,6.57
2024-02-10T21:53:51.614Z,9.35
2024-02-10T22:04:05.194Z,11.05
2024-02-10T22:09:08.519Z,9.07
2024-02-10T22:14:12.825Z,8.55
2024-02-10T22:19:17.335Z,8.25
2024-02-10T22:24:21.163Z,7.32
2024-02-10T22:29:25.980Z,4.57
2024-02-10T22:34:30.689Z,6.35
2024-02-10T22:39:39.803Z,6.00
2024-02-10T22:44:44.757Z,11.15
2024-02-10T22:49:49.260Z,9.02
2024-02-10T22:54:53.441Z,7.55
2024-02-10T22:59:57.918Z,8.35
2024-02-10T23:05:07.317Z,8.43
2024-02-10T23:10:13.151Z,6.32
2024-02-10T23:15:22.844Z,4.90
2024-02-10T23:20:26.948Z,5.43
2024-02-10T23:25:31.574Z,4.45
2024-02-10T23:30:39.353Z,3.88
2024-02-10T23:35:43.225Z,3.72
2024-02-10T23:40:47.166Z,3.53
2024-02-10T23:45:51.616Z,3.92
2024-02-10T23:50:54.470Z,3.92
2024-02-10T23:55:58.387Z,3.95
